Startpagina
METAR-TAF:

METAR-TAF

Vliegvelden :

Tahiti, Frans-Polynesië

breedte: 17-33S, lengte: 149-37W, hoogte: 2 m

Actueel weer

Dit bericht is 39 minuten geleden gemaakt, om 00:00 UTC
Wind 8 kt uit het oostnoordoosten, variërend tussen het noordoosten en het oosten
Temperatuur 30°C
Vochtigheid 62%
Druk 1012 hPa
Zicht 10 km of meer
Weinig wolken op 2300 ft
Verspreide wolken op 7000 ft

METAR: NTAA 260000Z 07008KT 040V100 9999 FEW023 SCT070 30/22 Q1012 NOSIG

Tijdstip: 14:39 (00:39 UTC)

Verwachting

Dit bericht is 1 uur en het 39 minuten geleden gemaakt, om 23:00 UTC
Verwachting geldig van 26 om 00 UTC tot 27 om 06 UTC
Wind 2 kt uit variabele richting
Zicht 10 km of meer
Weinig wolken op 2300 ft
Kans 30% :
Tijdelijke
van 26 om 00 UTC tot 26 om 02 UTC
Wind 12 kt uit het noordoosten
Kans 30% :
Tijdelijke
van 26 om 21 UTC tot 27 om 02 UTC
Wind 12 kt uit het noordoosten

TAF: NTAA 252300Z 2600/2706 VRB02KT 9999 FEW023 PROB30 TEMPO 2600/2602 05012KT PROB30 TEMPO 2621/2702 05012KT

Waarnemingen en weersverwachtingen van meer dan 4000 vliegvelden (METAR en TAF).

De beschikbare stations zijn de gele en rode punten op de kaart.

Ga met uw muis naar het station om de naam te zien.

Klik dan om waarnemingen en weersverwachtingen te zien.

kaart wijzigen: klik op de groene knoppen met een zwart kruis om in te zoomen, op de groene knop met een streepje om uit te zoomen of op de groene pijlen voor aangrenzende kaarten.


METAR-TAF: